createdAt,value
2023-03-02T00:02:00.182Z,107.40
2023-03-02T00:04:58.743Z,97.70
2023-03-02T00:07:32.768Z,101.00
2023-03-02T00:10:03.520Z,92.70
2023-03-02T00:12:33.364Z,92.10
2023-03-02T00:15:01.676Z,84.60
2023-03-02T00:17:29.694Z,92.70
2023-03-02T00:20:11.807Z,95.90
2023-03-02T00:22:45.081Z,100.60
2023-03-02T00:25:15.418Z,94.20
2023-03-02T00:27:43.891Z,89.70
2023-03-02T00:30:16.590Z,91.00
2023-03-02T00:32:45.862Z,86.50
2023-03-02T00:35:13.776Z,102.40
2023-03-02T00:37:43.447Z,102.60
2023-03-02T00:40:11.873Z,97.20
2023-03-02T00:42:40.121Z,97.80
2023-03-02T00:45:08.556Z,98.50
2023-03-02T00:47:37.467Z,94.40
2023-03-02T00:50:07.003Z,91.70
2023-03-02T00:52:35.597Z,101.50
2023-03-02T00:55:03.764Z,106.80
2023-03-02T00:57:31.622Z,107.10
2023-03-02T01:00:02.019Z,101.50
2023-03-02T01:02:30.068Z,100.10
2023-03-02T01:04:57.940Z,104.80
2023-03-02T01:07:28.333Z,107.40
2023-03-02T01:09:58.946Z,99.40
2023-03-02T01:12:26.905Z,101.60
2023-03-02T01:15:00.988Z,107.30
2023-03-02T01:17:28.986Z,96.40
2023-03-02T01:19:57.257Z,98.10
2023-03-02T01:22:25.300Z,102.60
2023-03-02T01:24:53.480Z,105.00
2023-03-02T01:27:22.231Z,102.00
2023-03-02T01:29:50.818Z,98.40
2023-03-02T01:32:18.655Z,108.10
2023-03-02T01:34:46.865Z,99.90
2023-03-02T01:37:14.709Z,105.80
2023-03-02T01:39:42.448Z,101.10
2023-03-02T01:42:10.311Z,94.60
2023-03-02T01:44:40.252Z,98.90
2023-03-02T01:47:25.636Z,105.90
2023-03-02T01:50:26.974Z,105.80
2023-03-02T01:52:55.446Z,99.90
2023-03-02T01:55:28.125Z,114.00
2023-03-02T01:57:58.835Z,131.60
2023-03-02T02:00:30.034Z,128.30
2023-03-02T02:03:24.460Z,158.60
2023-03-02T02:06:10.574Z,145.70
2023-03-02T02:08:39.625Z,145.60
2023-03-02T02:11:07.894Z,156.20
2023-03-02T02:13:36.004Z,159.70
2023-03-02T02:16:04.426Z,150.20
2023-03-02T02:18:33.935Z,142.30
2023-03-02T02:21:02.156Z,150.10
2023-03-02T02:23:55.121Z,133.50
2023-03-02T02:26:29.052Z,162.70
2023-03-02T02:29:08.078Z,152.10
2023-03-02T02:32:00.749Z,152.20
2023-03-02T02:34:36.007Z,141.60
2023-03-02T02:37:20.352Z,142.20
2023-03-02T02:40:13.961Z,171.00
2023-03-02T02:42:46.071Z,207.40
2023-03-02T02:45:23.027Z,203.30
2023-03-02T02:47:52.526Z,194.10
2023-03-02T02:50:29.383Z,216.90
2023-03-02T02:53:27.272Z,214.20
2023-03-02T02:55:58.295Z,203.10
2023-03-02T02:58:56.611Z,182.80
2023-03-02T03:01:26.398Z,174.00
2023-03-02T03:04:02.032Z,169.30
2023-03-02T03:06:41.454Z,154.30
2023-03-02T03:09:13.587Z,165.90
2023-03-02T03:11:45.347Z,158.30
2023-03-02T03:14:39.258Z,151.40
2023-03-02T03:17:12.173Z,143.30
2023-03-02T03:19:47.815Z,129.90
2023-03-02T03:22:16.721Z,134.30
2023-03-02T03:24:48.839Z,130.90
2023-03-02T03:27:17.008Z,121.80
2023-03-02T03:29:50.504Z,114.60
2023-03-02T03:32:19.254Z,111.00
2023-03-02T03:34:47.268Z,120.20
2023-03-02T03:37:17.553Z,115.90
2023-03-02T03:39:45.738Z,111.50
2023-03-02T03:42:13.636Z,107.20
2023-03-02T03:44:42.273Z,109.70
2023-03-02T03:47:10.186Z,110.80
2023-03-02T03:49:38.233Z,101.40
2023-03-02T03:52:06.371Z,103.10
2023-03-02T03:54:34.437Z,98.00
2023-03-02T03:57:03.150Z,103.60
2023-03-02T03:59:30.926Z,100.60
2023-03-02T04:02:00.806Z,100.40
2023-03-02T04:04:32.503Z,102.70
2023-03-02T04:07:00.526Z,110.90
2023-03-02T04:09:29.203Z,101.20
2023-03-02T04:11:57.891Z,100.60
2023-03-02T04:14:25.814Z,108.80
2023-03-02T04:16:54.006Z,102.50
2023-03-02T04:19:25.385Z,95.90
2023-03-02T04:21:55.060Z,98.10
2023-03-02T04:24:24.196Z,90.80
2023-03-02T04:26:52.108Z,94.30
2023-03-02T04:29:20.340Z,92.80
2023-03-02T04:31:48.602Z,104.10
2023-03-02T04:34:16.758Z,98.90
2023-03-02T04:36:45.140Z,99.10
2023-03-02T04:39:15.700Z,97.10
2023-03-02T04:41:43.876Z,97.80
2023-03-02T04:44:13.362Z,103.20
2023-03-02T04:46:45.013Z,106.00
2023-03-02T04:49:18.306Z,106.40
2023-03-02T04:51:52.578Z,121.20
2023-03-02T04:54:26.474Z,130.60
2023-03-02T04:56:55.200Z,124.20
2023-03-02T04:59:28.388Z,115.00
2023-03-02T05:01:59.814Z,120.90
2023-03-02T05:04:28.486Z,113.40
2023-03-02T05:06:57.815Z,118.90
2023-03-02T05:09:30.988Z,105.50
2023-03-02T05:12:01.140Z,106.90
2023-03-02T05:14:33.101Z,104.50
2023-03-02T05:17:01.213Z,108.00
2023-03-02T05:19:29.210Z,110.80
2023-03-02T05:21:57.482Z,111.00
2023-03-02T05:24:25.536Z,110.30
2023-03-02T05:26:53.880Z,111.20
2023-03-02T05:29:22.202Z,114.50
2023-03-02T05:32:12.786Z,112.70
2023-03-02T05:34:41.128Z,108.70
2023-03-02T05:37:09.535Z,113.40
2023-03-02T05:39:37.865Z,123.10
2023-03-02T05:42:06.284Z,119.70
2023-03-02T05:44:34.210Z,110.80
2023-03-02T05:47:02.022Z,108.90
2023-03-02T05:49:30.293Z,108.30
2023-03-02T05:51:58.996Z,108.30
2023-03-02T05:54:26.760Z,108.10
2023-03-02T05:56:54.494Z,121.90
2023-03-02T05:59:22.353Z,121.80
2023-03-02T06:01:50.461Z,141.30
2023-03-02T06:04:18.912Z,139.50
2023-03-02T06:06:47.630Z,153.90
2023-03-02T06:09:22.860Z,157.00
2023-03-02T06:11:50.902Z,150.40
2023-03-02T06:14:18.655Z,166.70
2023-03-02T06:16:49.655Z,175.00
2023-03-02T06:19:17.996Z,175.90
2023-03-02T06:21:46.123Z,188.60
2023-03-02T06:24:13.948Z,183.90
2023-03-02T06:26:43.749Z,172.30
2023-03-02T06:29:13.226Z,168.20
2023-03-02T06:31:41.835Z,158.30
2023-03-02T06:34:12.986Z,151.20
2023-03-02T06:36:40.868Z,158.50
2023-03-02T06:39:15.880Z,191.10
2023-03-02T06:41:48.663Z,195.60
2023-03-02T06:44:17.985Z,156.70
2023-03-02T06:46:46.812Z,152.00
2023-03-02T06:49:14.647Z,175.70
2023-03-02T06:51:42.537Z,154.40
2023-03-02T06:54:10.884Z,183.20
2023-03-02T06:56:40.738Z,164.90
2023-03-02T06:59:08.923Z,164.10
2023-03-02T07:01:37.492Z,166.60
2023-03-02T07:04:07.577Z,167.70
2023-03-02T07:06:36.249Z,173.10
2023-03-02T07:09:04.603Z,167.20
2023-03-02T07:11:32.759Z,171.50
2023-03-02T07:14:01.764Z,178.80
2023-03-02T07:16:31.240Z,182.60
2023-03-02T07:18:59.938Z,187.90
2023-03-02T07:21:27.774Z,197.70
2023-03-02T07:23:55.786Z,198.00
2023-03-02T07:26:26.546Z,217.80
2023-03-02T07:28:54.925Z,222.10
2023-03-02T07:31:23.217Z,209.00
2023-03-02T07:33:51.224Z,188.80
2023-03-02T07:36:19.108Z,203.70
2023-03-02T07:38:47.002Z,186.70
2023-03-02T07:41:16.932Z,198.10
2023-03-02T07:43:45.270Z,190.10
2023-03-02T07:46:13.692Z,174.10
2023-03-02T07:48:41.449Z,158.90
2023-03-02T07:51:09.301Z,134.30
2023-03-02T07:53:37.243Z,153.70
2023-03-02T07:56:12.527Z,126.90
2023-03-02T07:58:41.442Z,113.20
2023-03-02T08:01:09.346Z,98.80
2023-03-02T08:03:37.149Z,94.90
2023-03-02T08:06:11.255Z,99.40
2023-03-02T08:08:39.058Z,88.40
2023-03-02T08:11:12.500Z,94.10
2023-03-02T08:13:41.052Z,99.00
2023-03-02T08:16:10.899Z,98.60
2023-03-02T08:18:39.800Z,93.60
2023-03-02T08:21:20.434Z,95.70
2023-03-02T08:23:49.148Z,90.40
2023-03-02T08:26:19.118Z,94.60
2023-03-02T08:28:47.886Z,84.70
2023-03-02T08:31:16.325Z,83.30
2023-03-02T08:33:46.061Z,85.50
2023-03-02T08:36:16.790Z,84.20
2023-03-02T08:38:45.214Z,87.20
2023-03-02T08:41:16.984Z,85.90
2023-03-02T08:43:45.836Z,83.60
2023-03-02T08:46:18.191Z,78.40
2023-03-02T08:48:46.785Z,76.80
2023-03-02T08:51:24.194Z,74.80
2023-03-02T08:53:57.135Z,75.90
2023-03-02T08:56:33.855Z,76.70
2023-03-02T08:59:11.099Z,83.60
2023-03-02T09:01:40.478Z,88.30
2023-03-02T09:04:10.373Z,76.10
2023-03-02T09:06:41.364Z,77.30
2023-03-02T09:09:11.454Z,74.50
2023-03-02T09:11:39.762Z,79.30
2023-03-02T09:14:07.656Z,76.90
2023-03-02T09:16:35.462Z,77.20
2023-03-02T09:19:04.166Z,73.60
2023-03-02T09:21:32.344Z,74.30
2023-03-02T09:24:00.621Z,77.30
2023-03-02T09:26:28.415Z,78.40
2023-03-02T09:28:56.765Z,74.10
2023-03-02T09:31:24.890Z,69.60
2023-03-02T09:34:05.585Z,72.90
2023-03-02T09:36:36.649Z,72.90
2023-03-02T09:39:09.533Z,75.70
2023-03-02T09:42:43.478Z,73.40
2023-03-02T09:45:37.422Z,67.90
2023-03-02T09:48:16.446Z,70.80
2023-03-02T09:51:16.801Z,70.80
2023-03-02T09:54:29.452Z,62.80
2023-03-02T09:56:59.520Z,64.50
2023-03-02T09:59:40.065Z,58.10
2023-03-02T10:02:37.787Z,57.00
2023-03-02T10:05:14.240Z,56.20
2023-03-02T10:07:51.948Z,53.20
2023-03-02T10:10:44.073Z,51.60
2023-03-02T10:13:44.987Z,51.20
2023-03-02T10:16:30.957Z,43.60
2023-03-02T10:19:26.254Z,44.10
2023-03-02T10:22:03.431Z,56.80
2023-03-02T10:24:40.146Z,43.60
2023-03-02T10:27:22.557Z,35.50
2023-03-02T10:30:06.561Z,40.60
2023-03-02T10:35:21.090Z,50.50
2023-03-02T10:37:52.143Z,45.60
2023-03-02T10:41:10.142Z,41.00
2023-03-02T10:43:46.549Z,44.50
2023-03-02T10:48:58.730Z,39.30
2023-03-02T10:51:34.598Z,44.00
2023-03-02T10:54:10.942Z,47.80
2023-03-02T10:56:43.091Z,48.40
2023-03-02T10:59:28.776Z,45.80
2023-03-02T11:02:13.536Z,51.30
2023-03-02T11:04:42.066Z,47.90
2023-03-02T11:07:40.348Z,54.20
2023-03-02T11:10:19.706Z,50.90
2023-03-02T11:12:51.804Z,55.10
2023-03-02T11:15:35.740Z,50.60
2023-03-02T11:20:36.205Z,45.60
2023-03-02T11:23:33.033Z,44.90
2023-03-02T11:26:21.877Z,46.60
2023-03-02T11:29:00.054Z,52.40
2023-03-02T11:31:41.778Z,53.00
2023-03-02T11:34:28.232Z,54.80
2023-03-02T11:37:20.098Z,50.00
2023-03-02T11:39:55.139Z,48.60
2023-03-02T11:42:45.585Z,50.10
2023-03-02T11:45:14.006Z,55.80
2023-03-02T11:47:57.466Z,54.10
2023-03-02T11:50:38.978Z,52.50
2023-03-02T11:53:13.916Z,51.10
2023-03-02T11:55:48.816Z,50.20
2023-03-02T11:58:21.583Z,49.90
2023-03-02T12:00:51.051Z,51.40
2023-03-02T12:03:38.936Z,53.20
2023-03-02T12:06:26.450Z,56.80
2023-03-02T12:09:08.855Z,58.30
2023-03-02T12:11:41.672Z,53.30
2023-03-02T12:14:39.252Z,54.30
2023-03-02T12:17:30.837Z,55.80
2023-03-02T12:20:23.454Z,59.40
2023-03-02T12:22:51.432Z,56.30
2023-03-02T12:25:19.131Z,55.00
2023-03-02T12:27:49.738Z,52.70
2023-03-02T12:30:24.705Z,52.00
2023-03-02T12:33:10.860Z,63.20
2023-03-02T12:35:39.112Z,61.70
2023-03-02T12:38:29.640Z,56.00
2023-03-02T12:41:35.824Z,51.50
2023-03-02T12:44:09.689Z,46.90
2023-03-02T12:46:40.140Z,48.20
2023-03-02T12:49:17.317Z,42.40
2023-03-02T12:52:01.339Z,46.20
2023-03-02T12:54:34.657Z,53.60
2023-03-02T12:57:18.033Z,48.20
2023-03-02T12:59:54.664Z,40.60
2023-03-02T13:02:25.760Z,42.20
2023-03-02T13:05:00.258Z,40.50
2023-03-02T13:07:46.436Z,41.50
2023-03-02T13:10:36.240Z,37.50
2023-03-02T13:13:16.911Z,42.40
2023-03-02T13:15:57.323Z,45.60
2023-03-02T13:18:31.923Z,45.50
2023-03-02T13:21:02.554Z,39.40
2023-03-02T13:23:35.728Z,37.90
2023-03-02T13:26:05.748Z,40.00
2023-03-02T13:28:38.435Z,41.10
2023-03-02T13:31:25.087Z,37.20
2023-03-02T13:33:55.898Z,37.40
2023-03-02T13:36:27.203Z,37.10
2023-03-02T13:38:59.344Z,39.40
2023-03-02T13:41:33.104Z,36.00
2023-03-02T13:44:19.957Z,37.10
2023-03-02T13:46:47.937Z,41.70
2023-03-02T13:49:33.104Z,39.80
2023-03-02T13:52:18.285Z,37.40
2023-03-02T13:54:47.303Z,35.80
2023-03-02T13:57:20.430Z,41.90
2023-03-02T13:59:48.889Z,41.00
2023-03-02T14:02:25.872Z,70.20
2023-03-02T14:04:54.565Z,46.10
2023-03-02T14:07:22.736Z,43.10
2023-03-02T14:09:50.613Z,41.70
2023-03-02T14:12:30.600Z,40.80
2023-03-02T14:15:01.993Z,38.20
2023-03-02T14:17:30.200Z,40.50
2023-03-02T14:19:58.214Z,37.50
2023-03-02T14:22:29.677Z,37.50
2023-03-02T14:24:57.585Z,36.50
2023-03-02T14:27:29.534Z,43.70
2023-03-02T14:29:58.508Z,59.30
2023-03-02T14:32:26.447Z,42.50
2023-03-02T14:34:57.551Z,36.60
2023-03-02T14:37:28.522Z,39.80
2023-03-02T14:39:57.444Z,43.20
2023-03-02T14:42:25.214Z,34.20
2023-03-02T14:44:53.536Z,37.90
2023-03-02T14:47:22.046Z,37.40
2023-03-02T14:49:49.925Z,35.30
2023-03-02T14:52:30.828Z,36.40
2023-03-02T14:55:26.121Z,45.00
2023-03-02T14:57:58.861Z,41.90
2023-03-02T15:00:26.825Z,38.50
2023-03-02T15:02:59.100Z,37.30
2023-03-02T15:05:30.632Z,40.50
2023-03-02T15:07:59.487Z,41.20
2023-03-02T15:10:30.475Z,34.60
2023-03-02T15:13:01.354Z,75.60
2023-03-02T15:15:29.842Z,40.30
2023-03-02T15:17:57.714Z,38.80
2023-03-02T15:20:25.903Z,45.50
2023-03-02T15:22:56.549Z,48.40
2023-03-02T15:25:30.662Z,42.40
2023-03-02T15:27:59.982Z,47.80
2023-03-02T15:30:31.248Z,39.60
2023-03-02T15:33:01.102Z,43.00
2023-03-02T15:35:41.359Z,39.60
2023-03-02T15:38:20.257Z,39.60
2023-03-02T15:40:51.630Z,42.30
2023-03-02T15:43:24.221Z,41.40
2023-03-02T15:45:54.242Z,38.80
2023-03-02T15:48:24.151Z,37.10
2023-03-02T15:50:59.964Z,35.10
2023-03-02T15:53:36.109Z,37.90
2023-03-02T15:56:09.670Z,36.70
2023-03-02T15:58:37.407Z,40.40
2023-03-02T16:01:14.819Z,40.70
2023-03-02T16:03:46.273Z,42.00
2023-03-02T16:06:18.323Z,47.00
2023-03-02T16:08:46.134Z,43.60
2023-03-02T16:11:18.679Z,49.40
2023-03-02T16:13:49.196Z,43.60
2023-03-02T16:16:20.553Z,50.60
2023-03-02T16:19:03.697Z,59.50
2023-03-02T16:21:34.148Z,56.40
2023-03-02T16:24:08.503Z,56.30
2023-03-02T16:26:39.140Z,55.20
2023-03-02T16:29:09.867Z,51.30
2023-03-02T16:31:39.300Z,50.80
2023-03-02T16:34:11.580Z,53.20
2023-03-02T16:36:46.266Z,47.30
2023-03-02T16:39:15.376Z,47.90
2023-03-02T16:41:44.492Z,49.30
2023-03-02T16:44:16.294Z,46.60
2023-03-02T16:46:49.439Z,66.10
2023-03-02T16:49:20.754Z,85.80
2023-03-02T16:51:48.970Z,67.40
2023-03-02T16:54:19.571Z,68.00
2023-03-02T16:56:49.720Z,68.30
2023-03-02T16:59:20.767Z,66.10
2023-03-02T17:01:51.194Z,57.40
2023-03-02T17:04:33.751Z,71.40
2023-03-02T17:07:01.777Z,87.10
2023-03-02T17:09:34.554Z,80.10
2023-03-02T17:12:03.410Z,76.50
2023-03-02T17:14:31.610Z,76.40
2023-03-02T17:17:04.261Z,74.10
2023-03-02T17:19:34.699Z,60.00
2023-03-02T17:22:04.121Z,57.80
2023-03-02T17:24:33.211Z,60.00
2023-03-02T17:27:01.001Z,49.80
2023-03-02T17:29:28.925Z,52.70
2023-03-02T17:31:56.776Z,54.40
2023-03-02T17:34:28.756Z,47.00
2023-03-02T17:36:57.228Z,59.50
2023-03-02T17:39:25.853Z,54.10
2023-03-02T17:41:56.290Z,53.30
2023-03-02T17:44:24.360Z,56.00
2023-03-02T17:46:52.762Z,61.70
2023-03-02T17:49:20.662Z,65.20
2023-03-02T17:51:48.779Z,72.60
2023-03-02T17:54:17.518Z,69.90
2023-03-02T17:56:45.341Z,70.10
2023-03-02T17:59:14.844Z,73.10
2023-03-02T18:01:44.116Z,68.20
2023-03-02T18:04:12.196Z,70.20
2023-03-02T18:06:40.698Z,69.00
2023-03-02T18:09:11.515Z,66.30
2023-03-02T18:11:46.029Z,70.00
2023-03-02T18:14:19.926Z,69.20
2023-03-02T18:16:48.705Z,66.10
2023-03-02T18:19:16.924Z,69.60
2023-03-02T18:21:45.482Z,61.50
2023-03-02T18:24:13.280Z,59.30
2023-03-02T18:26:41.715Z,61.40
2023-03-02T18:29:09.504Z,66.90
2023-03-02T18:31:37.535Z,57.00
2023-03-02T18:34:08.968Z,63.20
2023-03-02T18:36:37.352Z,59.70
2023-03-02T18:39:05.311Z,59.70
2023-03-02T18:41:33.125Z,63.60
2023-03-02T18:44:01.447Z,60.10
2023-03-02T18:46:34.751Z,60.10
2023-03-02T18:49:04.504Z,55.20
2023-03-02T18:51:32.900Z,54.50
2023-03-02T18:54:00.980Z,58.90
2023-03-02T18:56:28.753Z,62.50
2023-03-02T18:58:56.601Z,70.20
2023-03-02T19:01:25.001Z,68.80
2023-03-02T19:03:56.886Z,82.80
2023-03-02T19:06:25.006Z,82.10
2023-03-02T19:08:52.780Z,77.00
2023-03-02T19:11:20.649Z,70.40
2023-03-02T19:13:48.468Z,78.40
2023-03-02T19:16:18.455Z,72.50
2023-03-02T19:18:47.150Z,78.90
2023-03-02T19:21:14.911Z,75.10
2023-03-02T19:23:44.497Z,66.90
2023-03-02T19:26:13.505Z,75.20
2023-03-02T19:28:41.847Z,71.30
2023-03-02T19:31:12.397Z,73.90
2023-03-02T19:33:42.297Z,77.70
2023-03-02T19:36:10.138Z,90.80
2023-03-02T19:38:41.545Z,85.40
2023-03-02T19:41:13.243Z,82.50
2023-03-02T19:43:42.862Z,85.30
2023-03-02T19:46:11.337Z,81.90
2023-03-02T19:48:39.919Z,83.90
2023-03-02T19:51:09.247Z,82.50
2023-03-02T19:53:38.518Z,85.30
2023-03-02T19:56:12.942Z,83.30
2023-03-02T19:58:49.969Z,95.00
2023-03-02T20:01:24.813Z,96.70
2023-03-02T20:03:53.242Z,111.10
2023-03-02T20:06:23.206Z,117.50
2023-03-02T20:08:52.219Z,144.60
2023-03-02T20:11:20.001Z,131.20
2023-03-02T20:13:48.330Z,136.20
2023-03-02T20:16:16.846Z,112.70
2023-03-02T20:18:45.683Z,116.50
2023-03-02T20:21:13.458Z,114.70
2023-03-02T20:23:41.902Z,110.00
2023-03-02T20:26:13.671Z,103.20
2023-03-02T20:28:41.406Z,101.90
2023-03-02T20:31:12.968Z,92.40
2023-03-02T20:33:47.745Z,101.10
2023-03-02T20:36:21.246Z,92.90
2023-03-02T20:39:00.456Z,93.70
2023-03-02T20:41:28.656Z,92.40
2023-03-02T20:43:57.019Z,96.40
2023-03-02T20:46:31.583Z,92.70
2023-03-02T20:49:00.140Z,90.50
2023-03-02T20:51:28.607Z,97.20
2023-03-02T20:53:56.847Z,95.40
2023-03-02T20:56:25.201Z,91.50
2023-03-02T20:58:53.664Z,95.60
2023-03-02T21:01:23.768Z,98.70
2023-03-02T21:03:52.408Z,105.30
2023-03-02T21:06:20.248Z,103.30
2023-03-02T21:08:48.741Z,95.90
2023-03-02T21:11:20.881Z,96.10
2023-03-02T21:13:49.547Z,107.00
2023-03-02T21:16:21.942Z,117.00
2023-03-02T21:18:50.906Z,126.20
2023-03-02T21:21:20.252Z,118.60
2023-03-02T21:23:51.438Z,149.60
2023-03-02T21:26:19.425Z,174.20
2023-03-02T21:28:48.024Z,178.60
2023-03-02T21:31:18.289Z,185.30
2023-03-02T21:33:46.275Z,223.90
2023-03-02T21:36:22.796Z,292.50
2023-03-02T21:38:52.390Z,266.80
2023-03-02T21:41:21.481Z,267.30
2023-03-02T21:43:49.715Z,242.30
2023-03-02T21:46:22.023Z,240.90
2023-03-02T21:48:51.387Z,230.00
2023-03-02T21:51:20.169Z,239.60
2023-03-02T21:53:48.478Z,248.90
2023-03-02T21:56:22.023Z,217.70
2023-03-02T21:58:51.532Z,212.40
2023-03-02T22:01:19.860Z,201.10
2023-03-02T22:03:48.353Z,187.80
2023-03-02T22:06:26.066Z,189.30
2023-03-02T22:08:55.695Z,171.30
2023-03-02T22:11:29.960Z,166.40
2023-03-02T22:14:00.453Z,160.70
2023-03-02T22:16:35.195Z,156.20
2023-03-02T22:19:20.329Z,143.10
2023-03-02T22:21:49.589Z,137.80
2023-03-02T22:24:23.959Z,135.40
2023-03-02T22:27:19.641Z,139.20
2023-03-02T22:29:50.260Z,141.80
2023-03-02T22:32:24.197Z,141.80
2023-03-02T22:34:54.496Z,143.50
2023-03-02T22:37:40.945Z,139.00
2023-03-02T22:40:30.989Z,130.30
2023-03-02T22:43:11.757Z,151.60
2023-03-02T22:45:41.306Z,182.90
2023-03-02T22:48:18.239Z,209.80
2023-03-02T22:50:49.730Z,184.50
2023-03-02T22:53:25.423Z,204.60
2023-03-02T22:56:04.303Z,199.10
2023-03-02T22:58:42.708Z,217.30
2023-03-02T23:01:27.685Z,208.60
2023-03-02T23:04:13.963Z,193.40
2023-03-02T23:06:46.391Z,179.90
2023-03-02T23:09:17.548Z,180.80
2023-03-02T23:11:45.784Z,174.20
2023-03-02T23:14:24.892Z,162.30
2023-03-02T23:17:00.212Z,174.70
2023-03-02T23:19:31.193Z,192.40
2023-03-02T23:21:59.427Z,194.60
2023-03-02T23:24:27.721Z,199.30
2023-03-02T23:26:55.567Z,169.20
2023-03-02T23:29:23.382Z,179.00
2023-03-02T23:31:51.212Z,177.50
2023-03-02T23:34:19.111Z,177.80
2023-03-02T23:36:46.909Z,177.90
2023-03-02T23:39:15.840Z,198.50
2023-03-02T23:41:43.854Z,194.70
2023-03-02T23:44:11.650Z,174.20
2023-03-02T23:46:39.399Z,175.60
2023-03-02T23:49:07.245Z,176.60
2023-03-02T23:51:35.179Z,166.60
2023-03-02T23:54:04.815Z,177.10
2023-03-02T23:56:32.880Z,166.60
2023-03-02T23:59:00.862Z,150.60
